sensor_id;sensor_type;location;lat;lon;timestamp;P1;durP1;ratioP1;P2;durP2;ratioP2
70199;SDS011;57587;55.688;37.600;2023-09-30T00:02:04;20.75;;;10.55;;
70199;SDS011;57587;55.688;37.600;2023-09-30T00:04:32;15.90;;;10.20;;
70199;SDS011;57587;55.688;37.600;2023-09-30T00:07:00;19.08;;;10.57;;
70199;SDS011;57587;55.688;37.600;2023-09-30T00:09:27;19.58;;;10.50;;
70199;SDS011;57587;55.688;37.600;2023-09-30T00:11:54;22.20;;;10.30;;
70199;SDS011;57587;55.688;37.600;2023-09-30T00:14:22;22.20;;;9.50;;
70199;SDS011;57587;55.688;37.600;2023-09-30T00:16:49;18.98;;;9.82;;
70199;SDS011;57587;55.688;37.600;2023-09-30T00:19:17;19.67;;;9.23;;
70199;SDS011;57587;55.688;37.600;2023-09-30T00:21:44;19.70;;;9.77;;
70199;SDS011;57587;55.688;37.600;2023-09-30T00:24:11;17.10;;;9.75;;
70199;SDS011;57587;55.688;37.600;2023-09-30T00:26:38;18.98;;;10.40;;
70199;SDS011;57587;55.688;37.600;2023-09-30T00:29:06;18.92;;;9.88;;
70199;SDS011;57587;55.688;37.600;2023-09-30T00:31:33;18.15;;;9.95;;
70199;SDS011;57587;55.688;37.600;2023-09-30T00:34:00;16.52;;;9.68;;
70199;SDS011;57587;55.688;37.600;2023-09-30T00:36:27;17.98;;;9.80;;
70199;SDS011;57587;55.688;37.600;2023-09-30T00:38:54;20.00;;;10.35;;
70199;SDS011;57587;55.688;37.600;2023-09-30T00:41:22;17.95;;;9.82;;
70199;SDS011;57587;55.688;37.600;2023-09-30T00:43:49;17.00;;;10.00;;
70199;SDS011;57587;55.688;37.600;2023-09-30T00:48:49;16.10;;;10.23;;
70199;SDS011;57587;55.688;37.600;2023-09-30T00:51:17;19.80;;;10.50;;
70199;SDS011;57587;55.688;37.600;2023-09-30T00:53:44;23.13;;;10.40;;
70199;SDS011;57587;55.688;37.600;2023-09-30T00:56:11;22.27;;;10.40;;
70199;SDS011;57587;55.688;37.600;2023-09-30T00:58:40;19.92;;;9.98;;
70199;SDS011;57587;55.688;37.600;2023-09-30T01:01:08;16.67;;;10.50;;
70199;SDS011;57587;55.688;37.600;2023-09-30T01:03:36;17.92;;;10.57;;
70199;SDS011;57587;55.688;37.600;2023-09-30T01:06:04;20.15;;;10.20;;
70199;SDS011;57587;55.688;37.600;2023-09-30T01:08:32;18.35;;;10.77;;
70199;SDS011;57587;55.688;37.600;2023-09-30T01:11:00;16.75;;;9.48;;
70199;SDS011;57587;55.688;37.600;2023-09-30T01:13:37;15.93;;;10.23;;
70199;SDS011;57587;55.688;37.600;2023-09-30T01:16:05;17.58;;;9.73;;
70199;SDS011;57587;55.688;37.600;2023-09-30T01:18:33;18.20;;;10.38;;
70199;SDS011;57587;55.688;37.600;2023-09-30T01:21:03;18.75;;;10.57;;
70199;SDS011;57587;55.688;37.600;2023-09-30T01:23:32;19.83;;;10.55;;
70199;SDS011;57587;55.688;37.600;2023-09-30T01:26:03;19.63;;;10.82;;
70199;SDS011;57587;55.688;37.600;2023-09-30T01:28:30;17.90;;;10.27;;
70199;SDS011;57587;55.688;37.600;2023-09-30T01:30:58;21.10;;;11.00;;
70199;SDS011;57587;55.688;37.600;2023-09-30T01:33:26;18.38;;;10.80;;
70199;SDS011;57587;55.688;37.600;2023-09-30T01:35:54;16.13;;;10.13;;
70199;SDS011;57587;55.688;37.600;2023-09-30T01:38:21;20.27;;;10.48;;
70199;SDS011;57587;55.688;37.600;2023-09-30T01:40:48;21.40;;;10.68;;
70199;SDS011;57587;55.688;37.600;2023-09-30T01:43:15;17.17;;;11.00;;
70199;SDS011;57587;55.688;37.600;2023-09-30T01:45:43;18.67;;;10.40;;
70199;SDS011;57587;55.688;37.600;2023-09-30T01:48:11;18.80;;;10.68;;
70199;SDS011;57587;55.688;37.600;2023-09-30T01:50:38;19.48;;;10.50;;
70199;SDS011;57587;55.688;37.600;2023-09-30T01:53:06;21.38;;;10.52;;
70199;SDS011;57587;55.688;37.600;2023-09-30T01:55:33;20.13;;;10.35;;
70199;SDS011;57587;55.688;37.600;2023-09-30T01:58:01;21.30;;;10.25;;
70199;SDS011;57587;55.688;37.600;2023-09-30T02:00:28;16.25;;;9.93;;
70199;SDS011;57587;55.688;37.600;2023-09-30T02:02:56;16.42;;;10.43;;
70199;SDS011;57587;55.688;37.600;2023-09-30T02:05:24;16.42;;;10.07;;
70199;SDS011;57587;55.688;37.600;2023-09-30T02:07:51;21.63;;;10.32;;
70199;SDS011;57587;55.688;37.600;2023-09-30T02:10:18;23.50;;;11.27;;
70199;SDS011;57587;55.688;37.600;2023-09-30T02:12:46;21.75;;;10.80;;
70199;SDS011;57587;55.688;37.600;2023-09-30T02:15:14;19.35;;;10.85;;
70199;SDS011;57587;55.688;37.600;2023-09-30T02:17:41;21.50;;;10.32;;
70199;SDS011;57587;55.688;37.600;2023-09-30T02:20:13;20.73;;;10.27;;
70199;SDS011;57587;55.688;37.600;2023-09-30T02:22:45;17.00;;;9.90;;
70199;SDS011;57587;55.688;37.600;2023-09-30T02:25:14;21.02;;;10.15;;
70199;SDS011;57587;55.688;37.600;2023-09-30T02:27:41;20.40;;;9.98;;
70199;SDS011;57587;55.688;37.600;2023-09-30T02:30:09;15.02;;;10.25;;
70199;SDS011;57587;55.688;37.600;2023-09-30T02:32:38;17.50;;;10.65;;
70199;SDS011;57587;55.688;37.600;2023-09-30T02:35:07;21.35;;;10.70;;
70199;SDS011;57587;55.688;37.600;2023-09-30T02:37:37;19.02;;;10.55;;
70199;SDS011;57587;55.688;37.600;2023-09-30T02:40:05;22.83;;;10.38;;
70199;SDS011;57587;55.688;37.600;2023-09-30T02:42:39;20.52;;;10.45;;
70199;SDS011;57587;55.688;37.600;2023-09-30T02:45:07;18.67;;;10.88;;
70199;SDS011;57587;55.688;37.600;2023-09-30T02:47:36;19.45;;;10.60;;
70199;SDS011;57587;55.688;37.600;2023-09-30T02:50:08;18.15;;;9.60;;
70199;SDS011;57587;55.688;37.600;2023-09-30T02:52:38;19.00;;;10.60;;
70199;SDS011;57587;55.688;37.600;2023-09-30T02:55:10;16.65;;;10.05;;
70199;SDS011;57587;55.688;37.600;2023-09-30T02:57:38;17.80;;;11.13;;
70199;SDS011;57587;55.688;37.600;2023-09-30T03:00:06;18.55;;;10.40;;
70199;SDS011;57587;55.688;37.600;2023-09-30T03:02:51;18.23;;;9.80;;
70199;SDS011;57587;55.688;37.600;2023-09-30T03:05:20;17.92;;;11.00;;
70199;SDS011;57587;55.688;37.600;2023-09-30T03:07:47;21.77;;;11.02;;
70199;SDS011;57587;55.688;37.600;2023-09-30T03:10:17;23.55;;;11.05;;
70199;SDS011;57587;55.688;37.600;2023-09-30T03:12:47;20.38;;;10.90;;
70199;SDS011;57587;55.688;37.600;2023-09-30T03:15:15;21.35;;;11.48;;
70199;SDS011;57587;55.688;37.600;2023-09-30T03:17:43;18.85;;;11.50;;
70199;SDS011;57587;55.688;37.600;2023-09-30T03:20:10;20.08;;;10.85;;
70199;SDS011;57587;55.688;37.600;2023-09-30T03:22:42;20.17;;;10.50;;
70199;SDS011;57587;55.688;37.600;2023-09-30T03:25:09;21.70;;;11.05;;
70199;SDS011;57587;55.688;37.600;2023-09-30T03:27:38;19.77;;;10.77;;
70199;SDS011;57587;55.688;37.600;2023-09-30T03:30:06;17.92;;;10.80;;
70199;SDS011;57587;55.688;37.600;2023-09-30T03:32:35;20.58;;;11.10;;
70199;SDS011;57587;55.688;37.600;2023-09-30T03:35:05;20.35;;;10.70;;
70199;SDS011;57587;55.688;37.600;2023-09-30T03:37:34;21.63;;;10.65;;
70199;SDS011;57587;55.688;37.600;2023-09-30T03:40:01;20.55;;;10.57;;
70199;SDS011;57587;55.688;37.600;2023-09-30T03:42:42;18.77;;;10.27;;
70199;SDS011;57587;55.688;37.600;2023-09-30T03:45:10;22.55;;;11.80;;
70199;SDS011;57587;55.688;37.600;2023-09-30T03:47:39;19.02;;;11.15;;
70199;SDS011;57587;55.688;37.600;2023-09-30T03:50:08;19.42;;;10.77;;
70199;SDS011;57587;55.688;37.600;2023-09-30T03:52:42;23.65;;;11.30;;
70199;SDS011;57587;55.688;37.600;2023-09-30T03:55:15;17.33;;;10.98;;
70199;SDS011;57587;55.688;37.600;2023-09-30T03:57:47;18.38;;;10.48;;
70199;SDS011;57587;55.688;37.600;2023-09-30T04:00:15;19.63;;;11.90;;
70199;SDS011;57587;55.688;37.600;2023-09-30T04:02:47;18.48;;;11.43;;
70199;SDS011;57587;55.688;37.600;2023-09-30T04:05:18;16.83;;;10.57;;
70199;SDS011;57587;55.688;37.600;2023-09-30T04:07:46;23.02;;;12.40;;
70199;SDS011;57587;55.688;37.600;2023-09-30T04:10:14;24.70;;;12.15;;
70199;SDS011;57587;55.688;37.600;2023-09-30T04:12:43;20.92;;;12.32;;
70199;SDS011;57587;55.688;37.600;2023-09-30T04:15:10;16.92;;;11.00;;
70199;SDS011;57587;55.688;37.600;2023-09-30T04:17:39;19.33;;;10.48;;
70199;SDS011;57587;55.688;37.600;2023-09-30T04:20:07;17.63;;;11.43;;
70199;SDS011;57587;55.688;37.600;2023-09-30T04:22:44;18.25;;;11.30;;
70199;SDS011;57587;55.688;37.600;2023-09-30T04:25:15;19.52;;;11.05;;
70199;SDS011;57587;55.688;37.600;2023-09-30T04:27:44;17.65;;;10.13;;
70199;SDS011;57587;55.688;37.600;2023-09-30T04:30:11;19.00;;;10.75;;
70199;SDS011;57587;55.688;37.600;2023-09-30T04:32:38;18.85;;;11.30;;
70199;SDS011;57587;55.688;37.600;2023-09-30T04:35:06;22.73;;;11.35;;
70199;SDS011;57587;55.688;37.600;2023-09-30T04:37:34;19.83;;;10.73;;
70199;SDS011;57587;55.688;37.600;2023-09-30T04:40:05;20.05;;;10.43;;
70199;SDS011;57587;55.688;37.600;2023-09-30T04:42:35;19.43;;;11.00;;
70199;SDS011;57587;55.688;37.600;2023-09-30T04:45:05;26.23;;;16.77;;
70199;SDS011;57587;55.688;37.600;2023-09-30T04:47:34;21.65;;;14.38;;
70199;SDS011;57587;55.688;37.600;2023-09-30T04:50:01;24.50;;;12.00;;
70199;SDS011;57587;55.688;37.600;2023-09-30T04:52:34;19.50;;;11.23;;
70199;SDS011;57587;55.688;37.600;2023-09-30T04:55:01;19.40;;;11.53;;
70199;SDS011;57587;55.688;37.600;2023-09-30T04:57:30;17.65;;;10.77;;
70199;SDS011;57587;55.688;37.600;2023-09-30T04:59:58;18.50;;;11.18;;
70199;SDS011;57587;55.688;37.600;2023-09-30T05:02:26;24.67;;;12.38;;
70199;SDS011;57587;55.688;37.600;2023-09-30T05:05:00;18.13;;;11.13;;
70199;SDS011;57587;55.688;37.600;2023-09-30T05:07:28;17.10;;;11.17;;
70199;SDS011;57587;55.688;37.600;2023-09-30T05:09:55;15.95;;;11.80;;
70199;SDS011;57587;55.688;37.600;2023-09-30T05:12:23;17.45;;;11.20;;
70199;SDS011;57587;55.688;37.600;2023-09-30T05:14:50;21.02;;;11.55;;
70199;SDS011;57587;55.688;37.600;2023-09-30T05:17:17;18.70;;;11.25;;
70199;SDS011;57587;55.688;37.600;2023-09-30T05:19:45;20.20;;;11.97;;
70199;SDS011;57587;55.688;37.600;2023-09-30T05:22:11;17.50;;;10.90;;
70199;SDS011;57587;55.688;37.600;2023-09-30T05:24:38;18.73;;;11.07;;
70199;SDS011;57587;55.688;37.600;2023-09-30T05:27:06;18.05;;;11.25;;
70199;SDS011;57587;55.688;37.600;2023-09-30T05:29:33;20.60;;;11.15;;
70199;SDS011;57587;55.688;37.600;2023-09-30T05:32:00;20.67;;;11.97;;
70199;SDS011;57587;55.688;37.600;2023-09-30T05:34:27;16.73;;;11.00;;
70199;SDS011;57587;55.688;37.600;2023-09-30T05:36:54;16.60;;;11.25;;
70199;SDS011;57587;55.688;37.600;2023-09-30T05:39:22;16.92;;;10.93;;
70199;SDS011;57587;55.688;37.600;2023-09-30T05:41:49;19.15;;;11.73;;
70199;SDS011;57587;55.688;37.600;2023-09-30T05:44:16;17.43;;;10.47;;
70199;SDS011;57587;55.688;37.600;2023-09-30T05:46:43;20.30;;;10.93;;
70199;SDS011;57587;55.688;37.600;2023-09-30T05:49:12;17.40;;;10.60;;
70199;SDS011;57587;55.688;37.600;2023-09-30T05:51:41;17.02;;;10.77;;
70199;SDS011;57587;55.688;37.600;2023-09-30T05:54:09;16.33;;;10.57;;
70199;SDS011;57587;55.688;37.600;2023-09-30T05:56:36;16.70;;;10.77;;
70199;SDS011;57587;55.688;37.600;2023-09-30T05:59:09;20.77;;;10.63;;
70199;SDS011;57587;55.688;37.600;2023-09-30T06:01:37;18.17;;;11.00;;
70199;SDS011;57587;55.688;37.600;2023-09-30T06:04:04;15.48;;;9.93;;
70199;SDS011;57587;55.688;37.600;2023-09-30T06:06:32;17.42;;;10.07;;
70199;SDS011;57587;55.688;37.600;2023-09-30T06:08:59;15.57;;;9.67;;
70199;SDS011;57587;55.688;37.600;2023-09-30T06:11:26;13.80;;;9.35;;
70199;SDS011;57587;55.688;37.600;2023-09-30T06:13:56;16.00;;;9.80;;
70199;SDS011;57587;55.688;37.600;2023-09-30T06:16:27;13.98;;;9.20;;
70199;SDS011;57587;55.688;37.600;2023-09-30T06:18:56;16.42;;;9.18;;
70199;SDS011;57587;55.688;37.600;2023-09-30T06:21:24;16.00;;;9.00;;
70199;SDS011;57587;55.688;37.600;2023-09-30T06:23:55;16.58;;;9.02;;
70199;SDS011;57587;55.688;37.600;2023-09-30T06:26:23;14.10;;;8.98;;
70199;SDS011;57587;55.688;37.600;2023-09-30T06:28:51;13.32;;;9.15;;
70199;SDS011;57587;55.688;37.600;2023-09-30T06:31:21;15.27;;;9.35;;
70199;SDS011;57587;55.688;37.600;2023-09-30T06:33:48;15.20;;;9.30;;
70199;SDS011;57587;55.688;37.600;2023-09-30T06:36:15;19.70;;;9.48;;
70199;SDS011;57587;55.688;37.600;2023-09-30T06:38:43;13.30;;;9.10;;
70199;SDS011;57587;55.688;37.600;2023-09-30T06:41:17;18.15;;;9.50;;
70199;SDS011;57587;55.688;37.600;2023-09-30T06:43:45;16.80;;;9.88;;
70199;SDS011;57587;55.688;37.600;2023-09-30T06:46:13;16.67;;;9.70;;
70199;SDS011;57587;55.688;37.600;2023-09-30T06:48:40;13.40;;;9.43;;
70199;SDS011;57587;55.688;37.600;2023-09-30T06:51:12;15.23;;;9.48;;
70199;SDS011;57587;55.688;37.600;2023-09-30T06:53:41;15.35;;;9.85;;
70199;SDS011;57587;55.688;37.600;2023-09-30T06:56:08;17.15;;;9.30;;
70199;SDS011;57587;55.688;37.600;2023-09-30T06:58:35;16.80;;;10.10;;
70199;SDS011;57587;55.688;37.600;2023-09-30T07:01:02;17.33;;;10.13;;
70199;SDS011;57587;55.688;37.600;2023-09-30T07:03:30;17.30;;;9.77;;
70199;SDS011;57587;55.688;37.600;2023-09-30T07:05:57;16.98;;;9.85;;
70199;SDS011;57587;55.688;37.600;2023-09-30T07:08:27;16.35;;;9.82;;
70199;SDS011;57587;55.688;37.600;2023-09-30T07:10:56;21.30;;;10.00;;
70199;SDS011;57587;55.688;37.600;2023-09-30T07:13:23;21.00;;;10.43;;
70199;SDS011;57587;55.688;37.600;2023-09-30T07:15:50;19.63;;;10.75;;
70199;SDS011;57587;55.688;37.600;2023-09-30T07:18:18;16.98;;;10.20;;
70199;SDS011;57587;55.688;37.600;2023-09-30T07:20:45;16.92;;;10.15;;
70199;SDS011;57587;55.688;37.600;2023-09-30T07:23:15;24.10;;;10.57;;
70199;SDS011;57587;55.688;37.600;2023-09-30T07:25:46;16.65;;;10.52;;
70199;SDS011;57587;55.688;37.600;2023-09-30T07:28:14;17.95;;;10.50;;
70199;SDS011;57587;55.688;37.600;2023-09-30T07:30:41;17.48;;;10.20;;
70199;SDS011;57587;55.688;37.600;2023-09-30T07:33:09;16.45;;;10.35;;
70199;SDS011;57587;55.688;37.600;2023-09-30T07:35:37;17.67;;;9.47;;
70199;SDS011;57587;55.688;37.600;2023-09-30T07:38:05;21.05;;;10.07;;
70199;SDS011;57587;55.688;37.600;2023-09-30T07:40:32;17.92;;;9.95;;
70199;SDS011;57587;55.688;37.600;2023-09-30T07:43:00;23.52;;;10.27;;
70199;SDS011;57587;55.688;37.600;2023-09-30T07:45:27;18.83;;;10.05;;
70199;SDS011;57587;55.688;37.600;2023-09-30T07:47:55;20.50;;;10.53;;
70199;SDS011;57587;55.688;37.600;2023-09-30T07:50:22;15.80;;;10.05;;
70199;SDS011;57587;55.688;37.600;2023-09-30T07:52:49;17.90;;;9.52;;
70199;SDS011;57587;55.688;37.600;2023-09-30T07:55:16;19.65;;;9.93;;
70199;SDS011;57587;55.688;37.600;2023-09-30T07:57:44;16.83;;;9.40;;
70199;SDS011;57587;55.688;37.600;2023-09-30T08:00:12;16.87;;;9.30;;
70199;SDS011;57587;55.688;37.600;2023-09-30T08:02:44;17.88;;;9.02;;
70199;SDS011;57587;55.688;37.600;2023-09-30T08:05:11;15.80;;;9.82;;
70199;SDS011;57587;55.688;37.600;2023-09-30T08:07:39;20.02;;;9.43;;
70199;SDS011;57587;55.688;37.600;2023-09-30T08:10:07;17.30;;;9.20;;
70199;SDS011;57587;55.688;37.600;2023-09-30T08:12:40;14.83;;;9.43;;
70199;SDS011;57587;55.688;37.600;2023-09-30T08:15:09;17.58;;;8.88;;
70199;SDS011;57587;55.688;37.600;2023-09-30T08:17:40;18.05;;;10.10;;
70199;SDS011;57587;55.688;37.600;2023-09-30T08:20:07;17.20;;;9.45;;
70199;SDS011;57587;55.688;37.600;2023-09-30T08:22:38;18.70;;;9.77;;
70199;SDS011;57587;55.688;37.600;2023-09-30T08:25:06;17.63;;;9.30;;
70199;SDS011;57587;55.688;37.600;2023-09-30T08:27:33;17.67;;;9.32;;
70199;SDS011;57587;55.688;37.600;2023-09-30T08:30:01;16.42;;;8.95;;
70199;SDS011;57587;55.688;37.600;2023-09-30T08:32:35;22.23;;;9.75;;
70199;SDS011;57587;55.688;37.600;2023-09-30T08:35:03;14.38;;;9.60;;
70199;SDS011;57587;55.688;37.600;2023-09-30T08:37:30;18.17;;;9.40;;
70199;SDS011;57587;55.688;37.600;2023-09-30T08:39:58;16.67;;;9.02;;
70199;SDS011;57587;55.688;37.600;2023-09-30T08:42:26;19.88;;;9.57;;
70199;SDS011;57587;55.688;37.600;2023-09-30T08:45:00;17.52;;;9.25;;
70199;SDS011;57587;55.688;37.600;2023-09-30T08:47:29;18.75;;;9.32;;
70199;SDS011;57587;55.688;37.600;2023-09-30T08:49:59;14.37;;;8.60;;
70199;SDS011;57587;55.688;37.600;2023-09-30T08:52:33;17.73;;;8.80;;
70199;SDS011;57587;55.688;37.600;2023-09-30T08:55:06;16.95;;;8.85;;
70199;SDS011;57587;55.688;37.600;2023-09-30T08:57:35;19.38;;;9.10;;
70199;SDS011;57587;55.688;37.600;2023-09-30T09:00:06;16.08;;;8.43;;
70199;SDS011;57587;55.688;37.600;2023-09-30T09:02:41;19.33;;;9.67;;
70199;SDS011;57587;55.688;37.600;2023-09-30T09:05:09;19.40;;;9.05;;
70199;SDS011;57587;55.688;37.600;2023-09-30T09:07:38;19.30;;;10.02;;
70199;SDS011;57587;55.688;37.600;2023-09-30T09:10:07;13.55;;;8.80;;
70199;SDS011;57587;55.688;37.600;2023-09-30T09:12:37;16.30;;;8.95;;
70199;SDS011;57587;55.688;37.600;2023-09-30T09:15:06;16.20;;;8.67;;
70199;SDS011;57587;55.688;37.600;2023-09-30T09:17:44;16.42;;;8.85;;
70199;SDS011;57587;55.688;37.600;2023-09-30T09:20:16;14.50;;;8.50;;
70199;SDS011;57587;55.688;37.600;2023-09-30T09:22:49;17.83;;;9.02;;
70199;SDS011;57587;55.688;37.600;2023-09-30T09:25:20;16.23;;;8.68;;
70199;SDS011;57587;55.688;37.600;2023-09-30T09:27:51;14.90;;;8.30;;
70199;SDS011;57587;55.688;37.600;2023-09-30T09:35:21;20.23;;;9.20;;
70199;SDS011;57587;55.688;37.600;2023-09-30T09:37:59;17.02;;;9.07;;
70199;SDS011;57587;55.688;37.600;2023-09-30T09:40:28;16.47;;;9.90;;
70199;SDS011;57587;55.688;37.600;2023-09-30T09:42:57;14.13;;;9.25;;
70199;SDS011;57587;55.688;37.600;2023-09-30T09:45:27;17.50;;;10.50;;
70199;SDS011;57587;55.688;37.600;2023-09-30T09:48:08;16.83;;;8.90;;
70199;SDS011;57587;55.688;37.600;2023-09-30T09:50:36;14.65;;;8.43;;
70199;SDS011;57587;55.688;37.600;2023-09-30T09:53:05;14.57;;;8.73;;
70199;SDS011;57587;55.688;37.600;2023-09-30T09:55:33;12.48;;;9.25;;
70199;SDS011;57587;55.688;37.600;2023-09-30T09:58:02;17.75;;;9.45;;
70199;SDS011;57587;55.688;37.600;2023-09-30T10:00:31;13.13;;;9.00;;
70199;SDS011;57587;55.688;37.600;2023-09-30T10:03:00;18.98;;;9.13;;
70199;SDS011;57587;55.688;37.600;2023-09-30T10:05:30;17.33;;;9.60;;
70199;SDS011;57587;55.688;37.600;2023-09-30T10:08:02;17.23;;;9.05;;
70199;SDS011;57587;55.688;37.600;2023-09-30T10:10:35;18.38;;;9.55;;
70199;SDS011;57587;55.688;37.600;2023-09-30T10:13:03;18.52;;;8.90;;
70199;SDS011;57587;55.688;37.600;2023-09-30T10:15:34;22.42;;;9.18;;
70199;SDS011;57587;55.688;37.600;2023-09-30T10:18:03;17.13;;;8.43;;
70199;SDS011;57587;55.688;37.600;2023-09-30T10:20:31;15.68;;;8.70;;
70199;SDS011;57587;55.688;37.600;2023-09-30T10:28:44;14.88;;;9.35;;
70199;SDS011;57587;55.688;37.600;2023-09-30T10:38:59;15.07;;;9.30;;
70199;SDS011;57587;55.688;37.600;2023-09-30T10:46:54;21.73;;;10.98;;
70199;SDS011;57587;55.688;37.600;2023-09-30T10:51:49;19.63;;;9.68;;
70199;SDS011;57587;55.688;37.600;2023-09-30T10:54:23;19.30;;;9.60;;
70199;SDS011;57587;55.688;37.600;2023-09-30T10:56:52;16.00;;;10.87;;
70199;SDS011;57587;55.688;37.600;2023-09-30T10:59:20;20.55;;;10.60;;
70199;SDS011;57587;55.688;37.600;2023-09-30T11:01:49;18.50;;;9.27;;
70199;SDS011;57587;55.688;37.600;2023-09-30T11:04:17;14.95;;;9.27;;
70199;SDS011;57587;55.688;37.600;2023-09-30T11:06:46;20.50;;;10.13;;
70199;SDS011;57587;55.688;37.600;2023-09-30T11:09:17;20.83;;;10.50;;
70199;SDS011;57587;55.688;37.600;2023-09-30T11:11:47;16.58;;;9.93;;
70199;SDS011;57587;55.688;37.600;2023-09-30T11:14:21;17.77;;;9.68;;
70199;SDS011;57587;55.688;37.600;2023-09-30T11:16:55;14.85;;;9.55;;
70199;SDS011;57587;55.688;37.600;2023-09-30T11:19:27;14.60;;;9.60;;
70199;SDS011;57587;55.688;37.600;2023-09-30T11:22:00;18.53;;;9.87;;
70199;SDS011;57587;55.688;37.600;2023-09-30T11:24:28;22.98;;;11.70;;
70199;SDS011;57587;55.688;37.600;2023-09-30T11:26:56;18.08;;;9.88;;
70199;SDS011;57587;55.688;37.600;2023-09-30T11:29:23;18.33;;;9.95;;
70199;SDS011;57587;55.688;37.600;2023-09-30T11:31:51;19.00;;;9.77;;
70199;SDS011;57587;55.688;37.600;2023-09-30T11:34:18;18.00;;;10.27;;
70199;SDS011;57587;55.688;37.600;2023-09-30T11:36:50;17.65;;;9.90;;
70199;SDS011;57587;55.688;37.600;2023-09-30T11:39:21;17.60;;;9.90;;
70199;SDS011;57587;55.688;37.600;2023-09-30T11:41:50;18.10;;;10.05;;
70199;SDS011;57587;55.688;37.600;2023-09-30T11:44:19;20.25;;;9.60;;
70199;SDS011;57587;55.688;37.600;2023-09-30T11:46:56;18.07;;;9.40;;
70199;SDS011;57587;55.688;37.600;2023-09-30T11:52:06;14.95;;;9.45;;
70199;SDS011;57587;55.688;37.600;2023-09-30T11:54:38;17.23;;;9.48;;
70199;SDS011;57587;55.688;37.600;2023-09-30T11:57:11;19.77;;;9.38;;
70199;SDS011;57587;55.688;37.600;2023-09-30T11:59:42;18.23;;;9.30;;
70199;SDS011;57587;55.688;37.600;2023-09-30T12:02:14;19.02;;;9.85;;
70199;SDS011;57587;55.688;37.600;2023-09-30T12:04:42;19.27;;;10.63;;
70199;SDS011;57587;55.688;37.600;2023-09-30T12:07:11;24.10;;;10.15;;
70199;SDS011;57587;55.688;37.600;2023-09-30T12:09:39;17.35;;;9.65;;
70199;SDS011;57587;55.688;37.600;2023-09-30T12:12:07;16.40;;;9.55;;
70199;SDS011;57587;55.688;37.600;2023-09-30T12:14:41;15.70;;;9.75;;
70199;SDS011;57587;55.688;37.600;2023-09-30T12:17:08;16.60;;;9.70;;
70199;SDS011;57587;55.688;37.600;2023-09-30T12:19:39;18.70;;;10.00;;
70199;SDS011;57587;55.688;37.600;2023-09-30T12:22:09;18.70;;;9.68;;
70199;SDS011;57587;55.688;37.600;2023-09-30T12:24:37;21.17;;;10.47;;
70199;SDS011;57587;55.688;37.600;2023-09-30T12:27:06;16.40;;;9.85;;
70199;SDS011;57587;55.688;37.600;2023-09-30T12:29:33;19.55;;;9.52;;
70199;SDS011;57587;55.688;37.600;2023-09-30T12:32:01;16.50;;;9.68;;
70199;SDS011;57587;55.688;37.600;2023-09-30T12:34:28;15.45;;;8.85;;
70199;SDS011;57587;55.688;37.600;2023-09-30T12:36:55;16.58;;;9.48;;
70199;SDS011;57587;55.688;37.600;2023-09-30T12:39:24;14.23;;;8.70;;
70199;SDS011;57587;55.688;37.600;2023-09-30T12:41:53;23.75;;;11.38;;
70199;SDS011;57587;55.688;37.600;2023-09-30T12:44:20;21.02;;;9.80;;
70199;SDS011;57587;55.688;37.600;2023-09-30T12:46:47;15.82;;;9.18;;
70199;SDS011;57587;55.688;37.600;2023-09-30T12:49:15;25.17;;;9.47;;
70199;SDS011;57587;55.688;37.600;2023-09-30T12:51:42;23.42;;;11.00;;
70199;SDS011;57587;55.688;37.600;2023-09-30T12:54:09;19.08;;;10.15;;
70199;SDS011;57587;55.688;37.600;2023-09-30T12:56:37;21.25;;;10.52;;
70199;SDS011;57587;55.688;37.600;2023-09-30T12:59:04;16.52;;;9.00;;
70199;SDS011;57587;55.688;37.600;2023-09-30T13:01:31;19.77;;;9.87;;
70199;SDS011;57587;55.688;37.600;2023-09-30T13:04:02;19.60;;;10.15;;
70199;SDS011;57587;55.688;37.600;2023-09-30T13:06:29;18.42;;;10.15;;
70199;SDS011;57587;55.688;37.600;2023-09-30T13:08:59;17.70;;;10.65;;
70199;SDS011;57587;55.688;37.600;2023-09-30T13:11:27;25.00;;;11.35;;
70199;SDS011;57587;55.688;37.600;2023-09-30T13:13:54;18.77;;;10.02;;
70199;SDS011;57587;55.688;37.600;2023-09-30T13:16:21;18.35;;;10.07;;
70199;SDS011;57587;55.688;37.600;2023-09-30T13:18:49;21.45;;;10.25;;
70199;SDS011;57587;55.688;37.600;2023-09-30T13:21:19;16.17;;;9.50;;
70199;SDS011;57587;55.688;37.600;2023-09-30T13:23:47;15.50;;;9.30;;
70199;SDS011;57587;55.688;37.600;2023-09-30T13:26:14;19.70;;;9.40;;
70199;SDS011;57587;55.688;37.600;2023-09-30T13:28:41;14.25;;;9.57;;
70199;SDS011;57587;55.688;37.600;2023-09-30T13:31:08;15.40;;;9.30;;
70199;SDS011;57587;55.688;37.600;2023-09-30T13:33:35;20.98;;;10.40;;
70199;SDS011;57587;55.688;37.600;2023-09-30T13:36:02;16.50;;;8.82;;
70199;SDS011;57587;55.688;37.600;2023-09-30T13:38:29;20.17;;;9.70;;
70199;SDS011;57587;55.688;37.600;2023-09-30T13:40:56;20.45;;;10.40;;
70199;SDS011;57587;55.688;37.600;2023-09-30T13:43:23;20.40;;;10.52;;
70199;SDS011;57587;55.688;37.600;2023-09-30T13:45:50;18.63;;;10.45;;
70199;SDS011;57587;55.688;37.600;2023-09-30T13:48:18;17.35;;;9.65;;
70199;SDS011;57587;55.688;37.600;2023-09-30T13:50:45;24.03;;;10.03;;
70199;SDS011;57587;55.688;37.600;2023-09-30T13:53:12;17.38;;;10.13;;
70199;SDS011;57587;55.688;37.600;2023-09-30T13:55:40;21.10;;;10.60;;
70199;SDS011;57587;55.688;37.600;2023-09-30T13:58:07;16.88;;;9.85;;
70199;SDS011;57587;55.688;37.600;2023-09-30T14:00:34;16.85;;;9.80;;
70199;SDS011;57587;55.688;37.600;2023-09-30T14:03:01;18.45;;;10.45;;
70199;SDS011;57587;55.688;37.600;2023-09-30T14:05:29;18.67;;;10.27;;
70199;SDS011;57587;55.688;37.600;2023-09-30T14:07:56;19.33;;;11.18;;
70199;SDS011;57587;55.688;37.600;2023-09-30T14:10:24;17.85;;;10.10;;
70199;SDS011;57587;55.688;37.600;2023-09-30T14:12:51;16.25;;;9.27;;
70199;SDS011;57587;55.688;37.600;2023-09-30T14:15:21;18.63;;;10.07;;
70199;SDS011;57587;55.688;37.600;2023-09-30T14:17:49;16.98;;;10.07;;
70199;SDS011;57587;55.688;37.600;2023-09-30T14:20:17;20.30;;;9.88;;
70199;SDS011;57587;55.688;37.600;2023-09-30T14:22:45;20.40;;;10.57;;
70199;SDS011;57587;55.688;37.600;2023-09-30T14:25:13;22.08;;;10.95;;
70199;SDS011;57587;55.688;37.600;2023-09-30T14:27:41;18.02;;;10.82;;
70199;SDS011;57587;55.688;37.600;2023-09-30T14:30:10;20.58;;;10.38;;
70199;SDS011;57587;55.688;37.600;2023-09-30T14:32:39;17.05;;;9.35;;
70199;SDS011;57587;55.688;37.600;2023-09-30T14:35:12;18.27;;;10.25;;
70199;SDS011;57587;55.688;37.600;2023-09-30T14:37:47;22.65;;;9.98;;
70199;SDS011;57587;55.688;37.600;2023-09-30T14:40:18;21.48;;;10.65;;
70199;SDS011;57587;55.688;37.600;2023-09-30T14:42:47;20.70;;;10.25;;
70199;SDS011;57587;55.688;37.600;2023-09-30T14:45:15;20.30;;;10.48;;
70199;SDS011;57587;55.688;37.600;2023-09-30T14:47:42;21.80;;;11.45;;
70199;SDS011;57587;55.688;37.600;2023-09-30T14:50:09;17.98;;;10.82;;
70199;SDS011;57587;55.688;37.600;2023-09-30T14:52:37;21.23;;;11.23;;
70199;SDS011;57587;55.688;37.600;2023-09-30T14:55:04;23.80;;;11.80;;